Portada
METAR-TAF:

METAR-TAF

Aeropuertos :

Corrientes, Argentina

Aeropuerto Internacional Doctor Fernando Piragine Niveyro

latitud: 27-27S, longitud: 058-46W, altitud: 62 m

Observación

El informe se hizo hace 40 minutos, a las 01:00 UTC
Viento 5 kt del este-sureste
Temperatura 27°C
Humedad 84%
Presión 1005 hPa
Visibilidad 10 km o más
Escasas nubes a una altura de 3000 ft
Escasas nubes a una altura de 5000 ft, Cumulonimbus.
Nubes dispersas a una altura de 10000 ft
Cielo nuboso a una altura de 20000 ft
tormenta

METAR: SARC 240100Z 11005KT 9999 TS FEW030 FEW050CB SCT100 BKN200 27/24 Q1005

Hora: 22:40 (01:40 UTC)


TAF: falta

Observaciones y pronósticos meteorológicos de más de 4000 aeropuertos (mensajes METAR y TAF).

Los puntos amarillos y rojos representan las estaciones disponibles.

Ponga el ratón en el punto deseado para ver el nombre de la estación.

Haga clic para ver las observaciones y los pronósticos meteorológicos.

Para cambiar el mapa : haga clic en los botones verdes con una cruz de color negro para hacer un zoom, en el botón verde con un guión para alejar o en las flechas verdes para mapas adyacentes.


METAR-TAF: